Time;durP1;ratioP1;P1;durP2;ratioP2;P2;SDS_P1;SDS_P2;PMS_P1;PMS_P2;Temp;Humidity;BMP_temperature;BMP_pressure;BME280_temperature;BME280_humidity;BME280_pressure;Samples;Min_cycle;Max_cycle;Signal;HPM_P1;HPM_P2
2023/03/26 00:00:03;;;;;;;;;;;;;;;;;;5087859;28;20057;-63
2023/03/26 00:02:29;;;;;;;;;;;;;;;;;;5082629;28;20040;-63
2023/03/26 00:04:55;;;;;;;;;;;;;;;;;;5068002;28;20029;-63
2023/03/26 00:07:21;;;;;;;;;;;;;;;;;;5067626;28;20374;-63
2023/03/26 00:09:47;;;;;;;;;;;;;;;;;;5081609;28;19928;-64
2023/03/26 00:12:13;;;;;;;;;;;;;;;;;;5045390;28;20019;-64
2023/03/26 00:14:39;;;;;;;;;;;;;;;;;;5084594;28;19927;-63
2023/03/26 00:17:07;;;;;;;;;;;;;;;;;;5075562;28;19970;-63
2023/03/26 00:19:33;;;;;;;;;;;;;;;;;;5076291;28;19927;-63
2023/03/26 00:21:59;;;;;;;;;;;;;;;;;;5069342;28;19971;-63
2023/03/26 00:24:28;;;;;;;;;;;;;;;;;;5073338;28;20372;-63
2023/03/26 00:26:54;;;;;;;;;;;;;;;;;;5067870;28;20350;-63
2023/03/26 00:29:21;;;;;;;;;;;;;;;;;;5090912;28;19967;-63
2023/03/26 00:31:47;;;;;;;;;;;;;;;;;;5091272;28;20245;-63
2023/03/26 00:34:14;;;;;;;;;;;;;;;;;;5088773;28;20016;-64
2023/03/26 00:36:41;;;;;;;;;;;;;;;;;;5080747;28;20377;-63
2023/03/26 00:39:07;;;;;;;;;;;;;;;;;;5092498;28;19920;-63
2023/03/26 00:41:35;;;;;;;;;;;;;;;;;;5085236;28;19928;-63
2023/03/26 00:44:01;;;;;;;;;;;;;;;;;;5084205;28;19928;-63
2023/03/26 00:46:27;;;;;;;;;;;;;;;;;;5082919;28;19920;-63
2023/03/26 00:48:53;;;;;;;;;;;;;;;;;;5086502;28;19920;-63
2023/03/26 00:51:19;;;;;;;;;;;;;;;;;;5074796;28;19924;-63
2023/03/26 00:53:45;;;;;;;;;;;;;;;;;;5074805;28;20323;-63
2023/03/26 00:56:11;;;;;;;;;;;;;;;;;;5092793;28;19939;-63
2023/03/26 00:58:37;;;;;;;;;;;;;;;;;;5084814;28;19920;-63
2023/03/26 01:01:03;;;;;;;;;;;;;;;;;;5084264;28;20400;-63
2023/03/26 01:03:28;;;;;;;;;;;;;;;;;;5071913;28;20369;-63
2023/03/26 01:05:54;;;;;;;;;;;;;;;;;;5084086;28;19934;-63
2023/03/26 01:08:21;;;;;;;;;;;;;;;;;;5060297;28;19939;-63
2023/03/26 01:10:49;;;;;;;;;;;;;;;;;;5088020;28;19920;-63
2023/03/26 01:13:15;;;;;;;;;;;;;;;;;;5066890;28;19924;-64
2023/03/26 01:15:41;;;;;;;;;;;;;;;;;;5063269;28;19957;-63
2023/03/26 01:18:08;;;;;;;;;;;;;;;;;;5084873;28;19920;-63
2023/03/26 01:20:37;;;;;;;;;;;;;;;;;;5075242;28;19979;-64
2023/03/26 01:23:04;;;;;;;;;;;;;;;;;;5080897;28;20370;-64
2023/03/26 01:25:29;;;;;;;;;;;;;;;;;;5084498;28;19950;-63
2023/03/26 01:27:55;;;;;;;;;;;;;;;;;;5072524;28;19920;-62
2023/03/26 01:30:21;;;;;;;;;;;;;;;;;;5080282;28;19920;-63
2023/03/26 01:32:47;;;;;;;;;;;;;;;;;;5090485;28;19967;-63
2023/03/26 01:35:13;;;;;;;;;;;;;;;;;;5070643;28;19931;-64
2023/03/26 01:37:39;;;;;;;;;;;;;;;;;;5091695;28;19924;-63
2023/03/26 01:40:05;;;;;;;;;;;;;;;;;;5066415;28;19929;-63
2023/03/26 01:42:31;;;;;;;;;;;;;;;;;;5081803;28;19920;-63
2023/03/26 01:44:57;;;;;;;;;;;;;;;;;;5072099;28;19920;-63
2023/03/26 01:47:23;;;;;;;;;;;;;;;;;;5085321;28;19920;-63
2023/03/26 01:49:49;;;;;;;;;;;;;;;;;;5074153;28;19920;-63
2023/03/26 01:52:15;;;;;;;;;;;;;;;;;;5085953;28;20457;-63
2023/03/26 01:54:41;;;;;;;;;;;;;;;;;;5072887;28;19931;-63
2023/03/26 01:57:07;;;;;;;;;;;;;;;;;;5089676;28;19924;-63
2023/03/26 01:59:33;;;;;;;;;;;;;;;;;;5089324;28;19943;-64
2023/03/26 02:02:00;;;;;;;;;;;;;;;;;;5087359;28;20451;-63
2023/03/26 02:04:25;;;;;;;;;;;;;;;;;;5074334;28;19928;-63
2023/03/26 02:06:51;;;;;;;;;;;;;;;;;;5068759;28;19920;-63
2023/03/26 02:09:17;;;;;;;;;;;;;;;;;;5053455;28;20363;-65
2023/03/26 02:11:43;;;;;;;;;;;;;;;;;;5070236;28;19960;-64
2023/03/26 02:14:09;;;;;;;;;;;;;;;;;;5082033;28;20364;-63
2023/03/26 02:16:35;;;;;;;;;;;;;;;;;;5076690;28;19924;-64
2023/03/26 02:19:01;;;;;;;;;;;;;;;;;;5088565;28;20293;-63
2023/03/26 02:21:27;;;;;;;;;;;;;;;;;;5085316;28;19920;-64
2023/03/26 02:24:01;;;;;;;;;;;;;;;;;;5072670;28;19920;-63
2023/03/26 02:26:27;;;;;;;;;;;;;;;;;;5089819;28;19927;-64
2023/03/26 02:28:53;;;;;;;;;;;;;;;;;;5087643;28;20284;-63
2023/03/26 02:31:20;;;;;;;;;;;;;;;;;;5066860;28;19946;-63
2023/03/26 02:33:46;;;;;;;;;;;;;;;;;;5072211;28;20011;-63
2023/03/26 02:36:12;;;;;;;;;;;;;;;;;;5077452;28;19966;-62
2023/03/26 02:38:38;;;;;;;;;;;;;;;;;;5087456;28;19921;-63
2023/03/26 02:41:04;;;;;;;;;;;;;;;;;;5067649;28;19931;-63
2023/03/26 02:43:30;;;;;;;;;;;;;;;;;;5066401;28;19920;-64
2023/03/26 02:45:56;;;;;;;;;;;;;;;;;;5081170;28;19969;-63
2023/03/26 02:48:22;;;;;;;;;;;;;;;;;;5086876;28;19946;-63
2023/03/26 02:50:49;;;;;;;;;;;;;;;;;;5087724;28;19924;-63
2023/03/26 02:53:14;;;;;;;;;;;;;;;;;;5086354;28;19982;-63
2023/03/26 02:55:40;;;;;;;;;;;;;;;;;;5077851;28;19968;-63
2023/03/26 02:58:06;;;;;;;;;;;;;;;;;;5087730;28;20322;-63
2023/03/26 03:00:33;;;;;;;;;;;;;;;;;;5084804;28;19950;-64
2023/03/26 03:02:59;;;;;;;;;;;;;;;;;;5072922;28;20611;-64
2023/03/26 03:05:25;;;;;;;;;;;;;;;;;;5084132;28;19977;-64
2023/03/26 03:07:51;;;;;;;;;;;;;;;;;;5090594;28;20552;-64
2023/03/26 03:10:20;;;;;;;;;;;;;;;;;;5063762;28;19925;-64
2023/03/26 03:12:46;;;;;;;;;;;;;;;;;;5066818;28;19920;-64
2023/03/26 03:15:12;;;;;;;;;;;;;;;;;;5074903;28;19931;-64
2023/03/26 03:17:39;;;;;;;;;;;;;;;;;;5067044;28;20409;-64
2023/03/26 03:20:08;;;;;;;;;;;;;;;;;;5076968;28;20320;-64
2023/03/26 03:22:34;;;;;;;;;;;;;;;;;;5077687;28;20370;-64
2023/03/26 03:24:59;;;;;;;;;;;;;;;;;;5089492;28;19936;-64
2023/03/26 03:27:25;;;;;;;;;;;;;;;;;;5094157;28;19920;-64
2023/03/26 03:29:54;;;;;;;;;;;;;;;;;;5093860;28;20285;-64
2023/03/26 03:32:21;;;;;;;;;;;;;;;;;;5080162;28;20328;-64
2023/03/26 03:34:48;;;;;;;;;;;;;;;;;;5070498;28;19925;-64
2023/03/26 03:37:14;;;;;;;;;;;;;;;;;;5044255;28;20554;-64
2023/03/26 03:39:40;;;;;;;;;;;;;;;;;;5075578;28;19946;-64
2023/03/26 03:42:06;;;;;;;;;;;;;;;;;;5082706;28;20358;-64
2023/03/26 03:44:32;;;;;;;;;;;;;;;;;;5078560;28;20291;-64
2023/03/26 03:46:58;;;;;;;;;;;;;;;;;;5081331;28;19932;-64
2023/03/26 03:49:24;;;;;;;;;;;;;;;;;;5079892;28;20416;-62
2023/03/26 03:51:50;;;;;;;;;;;;;;;;;;5093410;28;19928;-63
2023/03/26 03:54:15;;;;;;;;;;;;;;;;;;5084671;28;19921;-63
2023/03/26 03:56:44;;;;;;;;;;;;;;;;;;5089626;28;20289;-63
2023/03/26 03:59:10;;;;;;;;;;;;;;;;;;5085850;28;19928;-64
2023/03/26 04:01:36;;;;;;;;;;;;;;;;;;5049281;28;19921;-63
2023/03/26 04:04:02;;;;;;;;;;;;;;;;;;5077228;28;19920;-63
2023/03/26 04:06:29;;;;;;;;;;;;;;;;;;5082950;28;19920;-63
2023/03/26 04:08:55;;;;;;;;;;;;;;;;;;5074177;28;19959;-63
2023/03/26 04:11:21;;;;;;;;;;;;;;;;;;5075802;28;19920;-64
2023/03/26 04:13:46;;;;;;;;;;;;;;;;;;5070792;28;19932;-63
2023/03/26 04:16:12;;;;;;;;;;;;;;;;;;5066347;28;20010;-63
2023/03/26 04:18:39;;;;;;;;;;;;;;;;;;5054285;28;19967;-63
2023/03/26 04:21:06;;;;;;;;;;;;;;;;;;5073770;28;19967;-64
2023/03/26 04:23:33;;;;;;;;;;;;;;;;;;5073554;28;19920;-64
2023/03/26 04:26:02;;;;;;;;;;;;;;;;;;5058329;28;19931;-63
2023/03/26 04:28:29;;;;;;;;;;;;;;;;;;5063336;28;19921;-63
2023/03/26 04:30:55;;;;;;;;;;;;;;;;;;5059643;28;19962;-63
2023/03/26 04:33:23;;;;;;;;;;;;;;;;;;5066651;28;19928;-63
2023/03/26 04:35:49;;;;;;;;;;;;;;;;;;5089520;28;19930;-63
2023/03/26 04:38:16;;;;;;;;;;;;;;;;;;5080440;28;19920;-63
2023/03/26 04:40:42;;;;;;;;;;;;;;;;;;5057185;28;19928;-63
2023/03/26 04:43:08;;;;;;;;;;;;;;;;;;5092436;28;19923;-63
2023/03/26 04:45:34;;;;;;;;;;;;;;;;;;5085554;28;19921;-63
2023/03/26 04:48:01;;;;;;;;;;;;;;;;;;5086030;28;19924;-63
2023/03/26 04:50:26;;;;;;;;;;;;;;;;;;5061464;28;19921;-63
2023/03/26 04:52:52;;;;;;;;;;;;;;;;;;5069401;28;19930;-63
2023/03/26 04:55:18;;;;;;;;;;;;;;;;;;5075993;28;19928;-63
2023/03/26 04:57:45;;;;;;;;;;;;;;;;;;5080926;28;19982;-64
2023/03/26 05:00:14;;;;;;;;;;;;;;;;;;5083444;28;19927;-63
2023/03/26 05:02:40;;;;;;;;;;;;;;;;;;5090178;28;19920;-63
2023/03/26 05:05:06;;;;;;;;;;;;;;;;;;5082520;28;19927;-63
2023/03/26 05:07:32;;;;;;;;;;;;;;;;;;5066467;28;19932;-63
2023/03/26 05:10:00;;;;;;;;;;;;;;;;;;5083756;28;20281;-61
2023/03/26 05:12:26;;;;;;;;;;;;;;;;;;5067975;28;19920;-63
2023/03/26 05:14:52;;;;;;;;;;;;;;;;;;5086237;28;19924;-62
2023/03/26 05:17:20;;;;;;;;;;;;;;;;;;5073933;28;19924;-63
2023/03/26 05:19:46;;;;;;;;;;;;;;;;;;5059608;28;19967;-63
2023/03/26 05:22:12;;;;;;;;;;;;;;;;;;5089739;28;19962;-63
2023/03/26 05:24:38;;;;;;;;;;;;;;;;;;5084111;28;19989;-63
2023/03/26 05:27:04;;;;;;;;;;;;;;;;;;5075873;28;19936;-64
2023/03/26 05:29:30;;;;;;;;;;;;;;;;;;5075189;28;19972;-63
2023/03/26 05:31:56;;;;;;;;;;;;;;;;;;5080772;28;20331;-63
2023/03/26 05:34:25;;;;;;;;;;;;;;;;;;5088612;28;19927;-64
2023/03/26 05:36:51;;;;;;;;;;;;;;;;;;5087918;28;19928;-63
2023/03/26 05:39:16;;;;;;;;;;;;;;;;;;5082806;28;20425;-61
2023/03/26 05:41:42;;;;;;;;;;;;;;;;;;5082380;28;19979;-62
2023/03/26 05:44:08;;;;;;;;;;;;;;;;;;5090720;28;20341;-62
2023/03/26 05:46:34;;;;;;;;;;;;;;;;;;5063074;28;19928;-62
2023/03/26 05:49:00;;;;;;;;;;;;;;;;;;5071301;28;19928;-62
2023/03/26 05:51:26;;;;;;;;;;;;;;;;;;5072329;28;19931;-62
2023/03/26 05:53:52;;;;;;;;;;;;;;;;;;5054128;28;19920;-63
2023/03/26 05:56:18;;;;;;;;;;;;;;;;;;5053945;28;19979;-62
2023/03/26 05:58:44;;;;;;;;;;;;;;;;;;5064375;28;19963;-62
2023/03/26 06:01:10;;;;;;;;;;;;;;;;;;5058298;28;20019;-63
2023/03/26 06:03:35;;;;;;;;;;;;;;;;;;5052276;28;19920;-63
2023/03/26 06:06:02;;;;;;;;;;;;;;;;;;5052075;28;20011;-63
2023/03/26 06:08:28;;;;;;;;;;;;;;;;;;5051755;28;20275;-63
2023/03/26 06:10:54;;;;;;;;;;;;;;;;;;5051083;28;19932;-63
2023/03/26 06:13:20;;;;;;;;;;;;;;;;;;5066202;28;20257;-63
2023/03/26 06:15:46;;;;;;;;;;;;;;;;;;5076585;28;20395;-63
2023/03/26 06:18:12;;;;;;;;;;;;;;;;;;5052788;28;19920;-63
2023/03/26 06:20:38;;;;;;;;;;;;;;;;;;5072013;28;20254;-63
2023/03/26 06:23:03;;;;;;;;;;;;;;;;;;5057805;28;19932;-63
2023/03/26 06:25:29;;;;;;;;;;;;;;;;;;5051924;28;19924;-63
2023/03/26 06:27:55;;;;;;;;;;;;;;;;;;5051221;28;20433;-63
2023/03/26 06:30:21;;;;;;;;;;;;;;;;;;5065154;28;19943;-63
2023/03/26 06:32:47;;;;;;;;;;;;;;;;;;5084257;28;19943;-63
2023/03/26 06:35:13;;;;;;;;;;;;;;;;;;5086518;28;19924;-63
2023/03/26 06:37:39;;;;;;;;;;;;;;;;;;5071056;28;20580;-63
2023/03/26 06:40:05;;;;;;;;;;;;;;;;;;5066245;28;19924;-63
2023/03/26 06:42:31;;;;;;;;;;;;;;;;;;5055730;28;19978;-63
2023/03/26 06:44:56;;;;;;;;;;;;;;;;;;5068323;28;20457;-63
2023/03/26 06:47:22;;;;;;;;;;;;;;;;;;5090806;28;19920;-63
2023/03/26 06:49:48;;;;;;;;;;;;;;;;;;5083781;28;19951;-63
2023/03/26 06:52:14;;;;;;;;;;;;;;;;;;5096170;28;19932;-63
2023/03/26 06:54:40;;;;;;;;;;;;;;;;;;5085385;28;19925;-63
2023/03/26 06:57:06;;;;;;;;;;;;;;;;;;5075937;28;19938;-63
2023/03/26 06:59:32;;;;;;;;;;;;;;;;;;5093056;28;20301;-62
2023/03/26 07:01:58;;;;;;;;;;;;;;;;;;5083018;28;19999;-63
2023/03/26 07:04:24;;;;;;;;;;;;;;;;;;5085632;28;20199;-63
2023/03/26 07:06:50;;;;;;;;;;;;;;;;;;5094185;28;19920;-63
2023/03/26 07:09:16;;;;;;;;;;;;;;;;;;5086926;28;19928;-63
2023/03/26 07:11:41;;;;;;;;;;;;;;;;;;5077040;28;19923;-63
2023/03/26 07:14:07;;;;;;;;;;;;;;;;;;5087068;28;20296;-63
2023/03/26 07:16:33;;;;;;;;;;;;;;;;;;5087973;28;19924;-63
2023/03/26 07:18:59;;;;;;;;;;;;;;;;;;5079813;28;19943;-63
2023/03/26 07:21:25;;;;;;;;;;;;;;;;;;5075444;28;19924;-63
2023/03/26 07:23:51;;;;;;;;;;;;;;;;;;5074400;28;20429;-63
2023/03/26 07:26:17;;;;;;;;;;;;;;;;;;5085226;28;19965;-63
2023/03/26 07:28:43;;;;;;;;;;;;;;;;;;5085852;28;19927;-63
2023/03/26 07:31:09;;;;;;;;;;;;;;;;;;5080643;28;19939;-63
2023/03/26 07:33:35;;;;;;;;;;;;;;;;;;5080621;28;20968;-64
2023/03/26 07:36:01;;;;;;;;;;;;;;;;;;5095685;28;19939;-63
2023/03/26 07:38:27;;;;;;;;;;;;;;;;;;5087332;28;19920;-63
2023/03/26 07:40:53;;;;;;;;;;;;;;;;;;5077406;28;19924;-63
2023/03/26 07:43:19;;;;;;;;;;;;;;;;;;5079745;28;19936;-63
2023/03/26 07:45:45;;;;;;;;;;;;;;;;;;5077007;28;19924;-63
2023/03/26 07:48:11;;;;;;;;;;;;;;;;;;5082612;28;20578;-63
2023/03/26 07:50:37;;;;;;;;;;;;;;;;;;5068615;28;19931;-62
2023/03/26 07:53:03;;;;;;;;;;;;;;;;;;5047961;28;19920;-62
2023/03/26 07:55:29;;;;;;;;;;;;;;;;;;5085516;28;20407;-62
2023/03/26 07:57:55;;;;;;;;;;;;;;;;;;5091333;28;19924;-63
2023/03/26 08:00:21;;;;;;;;;;;;;;;;;;5087719;28;19925;-62
2023/03/26 08:02:47;;;;;;;;;;;;;;;;;;5077620;28;20428;-62
2023/03/26 08:05:17;;;;;;;;;;;;;;;;;;5090144;28;20588;-63
2023/03/26 08:07:43;;;;;;;;;;;;;;;;;;5040012;28;19974;-63
2023/03/26 08:10:09;;;;;;;;;;;;;;;;;;5046514;28;19944;-62
2023/03/26 08:12:35;;;;;;;;;;;;;;;;;;5090643;28;20304;-63
2023/03/26 08:15:01;;;;;;;;;;;;;;;;;;5059012;28;19945;-63
2023/03/26 08:17:27;;;;;;;;;;;;;;;;;;5070778;28;19945;-63
2023/03/26 08:19:53;;;;;;;;;;;;;;;;;;5054067;28;20596;-63
2023/03/26 08:22:25;;;;;;;;;;;;;;;;;;5055510;28;19921;-63
2023/03/26 08:24:52;;;;;;;;;;;;;;;;;;5053053;28;19969;-63
2023/03/26 08:27:20;;;;;;;;;;;;;;;;;;5053298;28;19978;-63
2023/03/26 08:29:48;;;;;;;;;;;;;;;;;;5053727;28;19967;-63
2023/03/26 08:32:14;;;;;;;;;;;;;;;;;;5053633;28;19976;-63
2023/03/26 08:34:40;;;;;;;;;;;;;;;;;;5053288;28;19970;-63
2023/03/26 08:37:08;;;;;;;;;;;;;;;;;;5053077;28;19967;-63
2023/03/26 08:39:36;;;;;;;;;;;;;;;;;;5053393;28;19925;-63
2023/03/26 08:42:02;;;;;;;;;;;;;;;;;;5052415;28;19964;-63
2023/03/26 08:44:28;;;;;;;;;;;;;;;;;;5051676;28;19964;-65
2023/03/26 08:46:54;;;;;;;;;;;;;;;;;;5052764;28;20328;-63
2023/03/26 08:49:20;;;;;;;;;;;;;;;;;;5052463;28;19924;-63
2023/03/26 08:51:45;;;;;;;;;;;;;;;;;;5034732;28;19932;-63
2023/03/26 08:54:11;;;;;;;;;;;;;;;;;;5052448;28;19928;-64
2023/03/26 08:56:37;;;;;;;;;;;;;;;;;;5034964;28;20042;-63
2023/03/26 08:59:03;;;;;;;;;;;;;;;;;;5052251;28;19947;-63
2023/03/26 09:01:29;;;;;;;;;;;;;;;;;;5053160;28;19921;-63
2023/03/26 09:03:55;;;;;;;;;;;;;;;;;;5052925;28;19933;-62
2023/03/26 09:06:21;;;;;;;;;;;;;;;;;;5045820;28;20572;-62
2023/03/26 09:08:47;;;;;;;;;;;;;;;;;;5079494;28;19924;-64
2023/03/26 09:11:13;;;;;;;;;;;;;;;;;;5067352;28;19921;-63
2023/03/26 09:13:39;;;;;;;;;;;;;;;;;;5066298;28;19921;-63
2023/03/26 09:16:05;;;;;;;;;;;;;;;;;;5079574;28;20410;-63
2023/03/26 09:18:31;;;;;;;;;;;;;;;;;;5092834;28;19924;-64
2023/03/26 09:20:56;;;;;;;;;;;;;;;;;;5063363;28;19936;-63
2023/03/26 09:23:22;;;;;;;;;;;;;;;;;;5068018;28;19921;-64
2023/03/26 09:25:48;;;;;;;;;;;;;;;;;;5057541;28;19932;-63
2023/03/26 09:28:15;;;;;;;;;;;;;;;;;;5064500;28;20628;-63
2023/03/26 09:30:41;;;;;;;;;;;;;;;;;;5075337;28;19927;-63
2023/03/26 09:33:08;;;;;;;;;;;;;;;;;;5046162;28;19924;-64
2023/03/26 09:35:34;;;;;;;;;;;;;;;;;;5077543;28;20603;-63
2023/03/26 09:38:02;;;;;;;;;;;;;;;;;;5080774;28;20372;-63
2023/03/26 09:40:28;;;;;;;;;;;;;;;;;;5087150;28;20258;-63
2023/03/26 09:42:54;;;;;;;;;;;;;;;;;;5052127;28;19931;-64
2023/03/26 09:45:21;;;;;;;;;;;;;;;;;;5084560;28;19920;-64
2023/03/26 09:47:47;;;;;;;;;;;;;;;;;;5076858;28;19924;-64
2023/03/26 09:50:13;;;;;;;;;;;;;;;;;;5089951;28;19972;-64
2023/03/26 09:52:39;;;;;;;;;;;;;;;;;;5038854;28;19924;-64
2023/03/26 09:55:07;;;;;;;;;;;;;;;;;;5071943;28;19982;-64
2023/03/26 09:57:32;;;;;;;;;;;;;;;;;;5073105;28;20422;-61
2023/03/26 09:59:58;;;;;;;;;;;;;;;;;;5045456;28;19920;-64
2023/03/26 10:02:24;;;;;;;;;;;;;;;;;;5078725;28;19928;-62
2023/03/26 10:04:50;;;;;;;;;;;;;;;;;;5108658;22;19931;-62
2023/03/26 10:07:16;;;;;;;;;;;;;;;;;;5112657;28;20004;-62
2023/03/26 10:09:42;;;;;;;;;;;;;;;;;;5098909;27;19920;-62
2023/03/26 10:12:08;;;;;;;;;;;;;;;;;;5110894;28;19924;-63
2023/03/26 10:14:34;;;;;;;;;;;;;;;;;;5112490;27;19931;-62
2023/03/26 10:17:01;;;;;;;;;;;;;;;;;;5110753;27;19924;-63
2023/03/26 10:19:27;;;;;;;;;;;;;;;;;;5112206;28;20360;-63
2023/03/26 10:21:53;;;;;;;;;;;;;;;;;;5111272;27;19920;-62
2023/03/26 10:24:19;;;;;;;;;;;;;;;;;;5112400;28;19924;-63
2023/03/26 10:26:45;;;;;;;;;;;;;;;;;;5111955;28;19928;-62
2023/03/26 10:29:11;;;;;;;;;;;;;;;;;;5110286;28;20353;-62
2023/03/26 10:31:37;;;;;;;;;;;;;;;;;;5111297;27;20013;-63
2023/03/26 10:34:05;;;;;;;;;;;;;;;;;;5111567;28;19954;-63
2023/03/26 10:36:32;;;;;;;;;;;;;;;;;;5111657;28;21301;-63
2023/03/26 10:38:58;;;;;;;;;;;;;;;;;;5111523;28;20034;-62
2023/03/26 10:41:24;;;;;;;;;;;;;;;;;;5108440;28;19993;-62
2023/03/26 10:43:50;;;;;;;;;;;;;;;;;;5095651;28;19924;-62
2023/03/26 10:46:16;;;;;;;;;;;;;;;;;;5110593;28;19926;-62
2023/03/26 10:48:42;;;;;;;;;;;;;;;;;;5111685;28;19923;-62
2023/03/26 10:51:08;;;;;;;;;;;;;;;;;;5111920;28;19943;-62
2023/03/26 10:53:34;;;;;;;;;;;;;;;;;;5111375;28;19932;-63
2023/03/26 10:56:00;;;;;;;;;;;;;;;;;;5106935;28;19962;-62
2023/03/26 10:58:26;;;;;;;;;;;;;;;;;;5102594;28;19945;-63
2023/03/26 11:00:52;;;;;;;;;;;;;;;;;;5111696;28;19931;-62
2023/03/26 11:03:18;;;;;;;;;;;;;;;;;;5111487;28;19924;-63
2023/03/26 11:05:43;;;;;;;;;;;;;;;;;;5092720;28;19920;-63
2023/03/26 11:08:09;;;;;;;;;;;;;;;;;;5111003;28;19928;-62
2023/03/26 11:10:35;;;;;;;;;;;;;;;;;;5111992;28;19934;-62
2023/03/26 11:13:01;;;;;;;;;;;;;;;;;;5111855;28;19931;-62
2023/03/26 11:15:27;;;;;;;;;;;;;;;;;;5109999;28;20322;-62
2023/03/26 11:17:53;;;;;;;;;;;;;;;;;;5107882;28;19920;-62
2023/03/26 11:20:19;;;;;;;;;;;;;;;;;;5105539;28;20049;-63
2023/03/26 11:22:45;;;;;;;;;;;;;;;;;;5111412;28;20005;-63
2023/03/26 11:25:11;;;;;;;;;;;;;;;;;;5111696;28;19924;-63
2023/03/26 11:27:37;;;;;;;;;;;;;;;;;;5112082;28;20036;-63
2023/03/26 11:30:03;;;;;;;;;;;;;;;;;;5110403;28;19924;-63
2023/03/26 11:32:29;;;;;;;;;;;;;;;;;;5112472;27;19930;-63
2023/03/26 11:34:55;;;;;;;;;;;;;;;;;;5100435;28;19973;-63
2023/03/26 11:37:21;;;;;;;;;;;;;;;;;;5099254;28;19919;-63
2023/03/26 11:39:47;;;;;;;;;;;;;;;;;;5114470;28;20010;-63
2023/03/26 11:42:13;;;;;;;;;;;;;;;;;;5115281;28;20015;-63
2023/03/26 11:44:39;;;;;;;;;;;;;;;;;;5113169;27;20291;-63
2023/03/26 11:47:07;;;;;;;;;;;;;;;;;;5113578;27;20008;-63
2023/03/26 11:49:33;;;;;;;;;;;;;;;;;;5114124;28;19993;-63
2023/03/26 11:52:00;;;;;;;;;;;;;;;;;;5111748;28;20410;-63
2023/03/26 11:54:26;;;;;;;;;;;;;;;;;;5115085;27;19931;-63
2023/03/26 11:56:53;;;;;;;;;;;;;;;;;;5114512;28;19928;-63
2023/03/26 11:59:19;;;;;;;;;;;;;;;;;;5109448;28;19920;-63
2023/03/26 12:01:49;;;;;;;;;;;;;;;;;;5115099;27;20006;-63
2023/03/26 12:04:15;;;;;;;;;;;;;;;;;;5107544;28;19924;-63
2023/03/26 12:06:42;;;;;;;;;;;;;;;;;;5095746;28;19924;-63
2023/03/26 12:09:09;;;;;;;;;;;;;;;;;;5106523;28;20329;-63
2023/03/26 12:11:35;;;;;;;;;;;;;;;;;;5114981;27;20395;-63
2023/03/26 12:14:01;;;;;;;;;;;;;;;;;;5094008;28;19928;-63
2023/03/26 12:16:27;;;;;;;;;;;;;;;;;;5103509;27;19919;-64
2023/03/26 12:18:52;;;;;;;;;;;;;;;;;;5106528;28;19920;-63
2023/03/26 12:21:18;;;;;;;;;;;;;;;;;;5111852;27;19962;-63
2023/03/26 12:23:44;;;;;;;;;;;;;;;;;;5109590;27;20041;-63
2023/03/26 12:26:11;;;;;;;;;;;;;;;;;;5104466;27;20384;-63
2023/03/26 12:28:37;;;;;;;;;;;;;;;;;;5097060;28;19947;-63
2023/03/26 12:31:03;;;;;;;;;;;;;;;;;;5094065;28;19920;-63
2023/03/26 12:33:32;;;;;;;;;;;;;;;;;;5093913;28;19928;-61
2023/03/26 12:35:59;;;;;;;;;;;;;;;;;;5094070;28;19928;-62
2023/03/26 12:38:26;;;;;;;;;;;;;;;;;;5094160;28;19959;-62
2023/03/26 12:40:52;;;;;;;;;;;;;;;;;;5093881;28;20417;-63
2023/03/26 12:43:18;;;;;;;;;;;;;;;;;;5080847;28;19926;-63
2023/03/26 12:45:44;;;;;;;;;;;;;;;;;;5113161;28;19920;-63
2023/03/26 12:48:10;;;;;;;;;;;;;;;;;;5114134;28;19920;-63
2023/03/26 12:50:36;;;;;;;;;;;;;;;;;;5114223;28;19969;-63
2023/03/26 12:53:02;;;;;;;;;;;;;;;;;;5113693;28;19920;-63
2023/03/26 12:55:28;;;;;;;;;;;;;;;;;;5111965;28;20373;-63
2023/03/26 12:57:55;;;;;;;;;;;;;;;;;;5104836;28;19923;-63
2023/03/26 13:00:21;;;;;;;;;;;;;;;;;;5107730;27;20014;-63
2023/03/26 13:02:47;;;;;;;;;;;;;;;;;;5111263;28;20364;-63
2023/03/26 13:05:13;;;;;;;;;;;;;;;;;;5110287;28;19950;-63
2023/03/26 13:07:39;;;;;;;;;;;;;;;;;;5112619;28;20403;-63
2023/03/26 13:10:07;;;;;;;;;;;;;;;;;;5105487;28;19960;-63
2023/03/26 13:12:33;;;;;;;;;;;;;;;;;;5092456;28;19981;-63
2023/03/26 13:14:59;;;;;;;;;;;;;;;;;;5099394;28;19928;-63
2023/03/26 13:17:25;;;;;;;;;;;;;;;;;;5107254;27;19919;-63
2023/03/26 13:19:51;;;;;;;;;;;;;;;;;;5111990;27;19927;-63
2023/03/26 13:22:17;;;;;;;;;;;;;;;;;;5111932;28;19919;-63
2023/03/26 13:24:43;;;;;;;;;;;;;;;;;;5111335;27;19924;-64
2023/03/26 13:27:09;;;;;;;;;;;;;;;;;;5085609;28;20277;-64
2023/03/26 13:29:34;;;;;;;;;;;;;;;;;;5112223;28;19926;-64
2023/03/26 13:32:00;;;;;;;;;;;;;;;;;;5113103;27;20022;-63
2023/03/26 13:34:26;;;;;;;;;;;;;;;;;;5112684;27;19938;-63
2023/03/26 13:36:52;;;;;;;;;;;;;;;;;;5112092;28;19920;-63
2023/03/26 13:39:18;;;;;;;;;;;;;;;;;;5112093;28;19920;-63
2023/03/26 13:41:44;;;;;;;;;;;;;;;;;;5112343;28;20010;-64
2023/03/26 13:44:10;;;;;;;;;;;;;;;;;;5104401;28;19924;-63
2023/03/26 13:46:36;;;;;;;;;;;;;;;;;;5104456;27;19976;-63
2023/03/26 13:49:02;;;;;;;;;;;;;;;;;;5111777;28;19920;-63
2023/03/26 13:51:28;;;;;;;;;;;;;;;;;;5100845;28;19920;-63
2023/03/26 13:53:54;;;;;;;;;;;;;;;;;;5105679;27;19927;-63
2023/03/26 13:56:19;;;;;;;;;;;;;;;;;;5092397;28;19970;-63
2023/03/26 13:58:46;;;;;;;;;;;;;;;;;;5092210;28;19924;-63
2023/03/26 14:01:15;;;;;;;;;;;;;;;;;;5099872;27;19924;-63
2023/03/26 14:03:41;;;;;;;;;;;;;;;;;;5106647;28;19927;-63
2023/03/26 14:06:07;;;;;;;;;;;;;;;;;;5112157;27;19919;-63
2023/03/26 14:08:33;;;;;;;;;;;;;;;;;;5107369;28;19954;-63
2023/03/26 14:10:59;;;;;;;;;;;;;;;;;;5110899;28;19954;-63
2023/03/26 14:13:25;;;;;;;;;;;;;;;;;;5111633;27;19935;-63
2023/03/26 14:15:51;;;;;;;;;;;;;;;;;;5111126;28;19947;-64
2023/03/26 14:18:17;;;;;;;;;;;;;;;;;;5093465;27;20011;-64
2023/03/26 14:20:43;;;;;;;;;;;;;;;;;;5106273;28;19919;-63
2023/03/26 14:23:09;;;;;;;;;;;;;;;;;;5101088;27;19920;-64
2023/03/26 14:25:35;;;;;;;;;;;;;;;;;;5112155;28;19927;-63
2023/03/26 14:28:01;;;;;;;;;;;;;;;;;;5112010;28;19924;-64
2023/03/26 14:30:27;;;;;;;;;;;;;;;;;;5109983;28;19920;-63
2023/03/26 14:32:53;;;;;;;;;;;;;;;;;;5103206;28;19920;-63
2023/03/26 14:35:19;;;;;;;;;;;;;;;;;;5110873;28;19938;-63
2023/03/26 14:37:45;;;;;;;;;;;;;;;;;;5112441;28;20006;-63
2023/03/26 14:40:13;;;;;;;;;;;;;;;;;;5109082;28;20007;-63
2023/03/26 14:42:39;;;;;;;;;;;;;;;;;;5110601;28;19923;-68
2023/03/26 14:45:05;;;;;;;;;;;;;;;;;;5112434;28;19926;-68
2023/03/26 14:47:31;;;;;;;;;;;;;;;;;;5101800;28;19967;-67
2023/03/26 14:49:57;;;;;;;;;;;;;;;;;;5101876;28;19928;-68
2023/03/26 14:52:23;;;;;;;;;;;;;;;;;;5111168;28;19994;-68
2023/03/26 14:54:49;;;;;;;;;;;;;;;;;;5111454;28;20327;-68
2023/03/26 14:57:14;;;;;;;;;;;;;;;;;;5110522;28;20011;-68
2023/03/26 14:59:40;;;;;;;;;;;;;;;;;;5110792;28;19947;-68
2023/03/26 15:02:06;;;;;;;;;;;;;;;;;;5111592;28;19919;-68
2023/03/26 15:04:33;;;;;;;;;;;;;;;;;;5110125;28;19989;-68
2023/03/26 15:06:59;;;;;;;;;;;;;;;;;;5110854;28;19974;-68
2023/03/26 15:09:25;;;;;;;;;;;;;;;;;;5113856;28;19923;-68
2023/03/26 15:11:51;;;;;;;;;;;;;;;;;;5112695;28;19919;-68
2023/03/26 15:14:17;;;;;;;;;;;;;;;;;;5095131;28;19928;-68
2023/03/26 15:16:43;;;;;;;;;;;;;;;;;;5103388;28;19920;-68
2023/03/26 15:19:09;;;;;;;;;;;;;;;;;;5115084;27;19959;-68
2023/03/26 15:21:35;;;;;;;;;;;;;;;;;;5086510;28;20696;-67
2023/03/26 15:24:01;;;;;;;;;;;;;;;;;;5105168;28;19997;-67
2023/03/26 15:26:27;;;;;;;;;;;;;;;;;;5114509;27;20333;-68
2023/03/26 15:28:53;;;;;;;;;;;;;;;;;;5113494;28;20010;-68
2023/03/26 15:31:19;;;;;;;;;;;;;;;;;;5114842;28;19923;-68
2023/03/26 15:33:45;;;;;;;;;;;;;;;;;;5115223;28;20561;-68
2023/03/26 15:36:12;;;;;;;;;;;;;;;;;;5114396;28;19931;-68
2023/03/26 15:38:38;;;;;;;;;;;;;;;;;;5115637;27;19923;-68
2023/03/26 15:41:04;;;;;;;;;;;;;;;;;;5114156;28;19928;-68
2023/03/26 15:43:30;;;;;;;;;;;;;;;;;;5114135;28;19920;-67
2023/03/26 15:45:56;;;;;;;;;;;;;;;;;;5115553;28;19928;-67
2023/03/26 15:48:24;;;;;;;;;;;;;;;;;;5114762;27;19919;-67
2023/03/26 15:50:50;;;;;;;;;;;;;;;;;;5114158;28;20011;-68
2023/03/26 15:53:22;;;;;;;;;;;;;;;;;;5112761;27;19976;-68
2023/03/26 15:55:48;;;;;;;;;;;;;;;;;;5112450;27;19926;-68
2023/03/26 15:58:14;;;;;;;;;;;;;;;;;;5114362;27;19931;-68
2023/03/26 16:00:40;;;;;;;;;;;;;;;;;;5115291;27;19998;-68
2023/03/26 16:03:08;;;;;;;;;;;;;;;;;;5113753;28;20448;-66
2023/03/26 16:05:35;;;;;;;;;;;;;;;;;;5114087;28;19981;-68
2023/03/26 16:08:03;;;;;;;;;;;;;;;;;;5114025;28;19924;-68
2023/03/26 16:10:29;;;;;;;;;;;;;;;;;;5112633;28;19924;-67
2023/03/26 16:12:55;;;;;;;;;;;;;;;;;;5115185;27;19966;-68
2023/03/26 16:15:21;;;;;;;;;;;;;;;;;;5114152;27;20373;-68
2023/03/26 16:17:52;;;;;;;;;;;;;;;;;;5114946;28;19924;-68
2023/03/26 16:20:18;;;;;;;;;;;;;;;;;;5111742;28;19919;-67
2023/03/26 16:22:44;;;;;;;;;;;;;;;;;;5094514;28;19924;-67
2023/03/26 16:25:10;;;;;;;;;;;;;;;;;;5108098;27;20347;-67
2023/03/26 16:27:36;;;;;;;;;;;;;;;;;;5096234;28;19924;-68
2023/03/26 16:30:01;;;;;;;;;;;;;;;;;;5113016;28;19946;-67
2023/03/26 16:32:28;;;;;;;;;;;;;;;;;;5113411;28;19923;-67
2023/03/26 16:34:54;;;;;;;;;;;;;;;;;;5111274;27;20376;-67
2023/03/26 16:37:24;;;;;;;;;;;;;;;;;;5097684;27;19993;-67